Startpagina
METAR-TAF:

METAR-TAF

Vliegvelden :

Aeroporto Internacional de Brasília

Brasilia, Federaal District, Brazilië

breedte: 15-52S, lengte: 047-56W, hoogte: 1061 m

Actueel weer

Dit bericht is 19 minuten geleden gemaakt, om 23:00 UTC
Wind 1 kt uit variabele richting
Temperatuur 20°C
Vochtigheid 64%
Druk 1021 hPa
Zicht 10 km of meer
geen wolken onder 1500 m en geen cumulonimbus

METAR: SBBR 312300Z VRB01KT CAVOK 20/13 Q1021

Tijdstip: 20:19 (23:19 UTC)

Verwachting

Dit bericht is 7 uur en het 19 minuten geleden gemaakt, om 16:00 UTC
Verwachting geldig van 31 om 18 UTC tot 01 om 18 UTC
Wind 8 kt uit het oostzuidoosten
Zicht 10 km of meer
geen wolken onder 1500 m en geen cumulonimbus
Wijzigt naar
van 31 om 22 UTC tot 31 om 24 UTC
Wind 5 kt uit het oosten
Wijzigt naar
van 01 om 10 UTC tot 01 om 12 UTC
Wind 9 kt uit het noorden

TAF: SBBR 311600Z 3118/0118 12008KT CAVOK TN15/0109Z TX26/0117Z BECMG 3122/3124 08005KT BECMG 0110/0112 36009KT RMK PEM

Waarnemingen en weersverwachtingen van meer dan 4000 vliegvelden (METAR en TAF).

De beschikbare stations zijn de gele en rode punten op de kaart.

Ga met uw muis naar het station om de naam te zien.

Klik dan om waarnemingen en weersverwachtingen te zien.

kaart wijzigen: klik op de groene knoppen met een zwart kruis om in te zoomen, op de groene knop met een streepje om uit te zoomen of op de groene pijlen voor aangrenzende kaarten.


METAR-TAF: